sensor_id;sensor_type;location;lat;lon;timestamp;P1;durP1;ratioP1;P2;durP2;ratioP2
16577;SDS011;8401;52.528;13.340;2022-10-31T00:02:06;30.83;;;20.63;;
16577;SDS011;8401;52.528;13.340;2022-10-31T00:04:31;28.80;;;19.43;;
16577;SDS011;8401;52.528;13.340;2022-10-31T00:06:57;29.33;;;20.17;;
16577;SDS011;8401;52.528;13.340;2022-10-31T00:09:23;28.40;;;20.23;;
16577;SDS011;8401;52.528;13.340;2022-10-31T00:11:48;26.17;;;19.73;;
16577;SDS011;8401;52.528;13.340;2022-10-31T00:14:14;28.40;;;19.40;;
16577;SDS011;8401;52.528;13.340;2022-10-31T00:16:39;32.30;;;19.73;;
16577;SDS011;8401;52.528;13.340;2022-10-31T00:19:06;30.07;;;19.83;;
16577;SDS011;8401;52.528;13.340;2022-10-31T00:21:32;30.43;;;20.37;;
16577;SDS011;8401;52.528;13.340;2022-10-31T00:23:59;30.20;;;21.47;;
16577;SDS011;8401;52.528;13.340;2022-10-31T00:26:28;28.10;;;20.00;;
16577;SDS011;8401;52.528;13.340;2022-10-31T00:28:56;32.73;;;20.90;;
16577;SDS011;8401;52.528;13.340;2022-10-31T00:31:23;28.50;;;19.60;;
16577;SDS011;8401;52.528;13.340;2022-10-31T00:33:48;29.20;;;20.40;;
16577;SDS011;8401;52.528;13.340;2022-10-31T00:36:16;27.67;;;18.90;;
16577;SDS011;8401;52.528;13.340;2022-10-31T00:38:43;31.23;;;19.43;;
16577;SDS011;8401;52.528;13.340;2022-10-31T00:41:10;29.73;;;19.57;;
16577;SDS011;8401;52.528;13.340;2022-10-31T00:43:37;30.00;;;19.10;;
16577;SDS011;8401;52.528;13.340;2022-10-31T00:46:02;27.50;;;19.17;;
16577;SDS011;8401;52.528;13.340;2022-10-31T00:48:28;26.83;;;18.53;;
16577;SDS011;8401;52.528;13.340;2022-10-31T00:50:54;25.03;;;17.80;;
16577;SDS011;8401;52.528;13.340;2022-10-31T00:53:20;28.33;;;17.50;;
16577;SDS011;8401;52.528;13.340;2022-10-31T00:55:45;29.07;;;18.40;;
16577;SDS011;8401;52.528;13.340;2022-10-31T00:58:11;26.20;;;16.83;;
16577;SDS011;8401;52.528;13.340;2022-10-31T01:00:37;24.33;;;16.27;;
16577;SDS011;8401;52.528;13.340;2022-10-31T01:03:03;25.03;;;15.87;;
16577;SDS011;8401;52.528;13.340;2022-10-31T01:05:28;24.00;;;16.43;;
16577;SDS011;8401;52.528;13.340;2022-10-31T01:07:54;27.63;;;17.13;;
16577;SDS011;8401;52.528;13.340;2022-10-31T01:10:20;26.80;;;15.37;;
16577;SDS011;8401;52.528;13.340;2022-10-31T01:12:46;22.77;;;15.03;;
16577;SDS011;8401;52.528;13.340;2022-10-31T01:15:14;25.60;;;15.00;;
16577;SDS011;8401;52.528;13.340;2022-10-31T01:17:45;21.00;;;14.17;;
16577;SDS011;8401;52.528;13.340;2022-10-31T01:20:11;24.97;;;14.93;;
16577;SDS011;8401;52.528;13.340;2022-10-31T01:22:38;21.83;;;14.30;;
16577;SDS011;8401;52.528;13.340;2022-10-31T01:25:04;19.63;;;14.13;;
16577;SDS011;8401;52.528;13.340;2022-10-31T01:27:31;19.93;;;14.97;;
16577;SDS011;8401;52.528;13.340;2022-10-31T01:29:56;23.70;;;14.73;;
16577;SDS011;8401;52.528;13.340;2022-10-31T01:32:22;21.57;;;14.27;;
16577;SDS011;8401;52.528;13.340;2022-10-31T01:34:48;23.93;;;15.30;;
16577;SDS011;8401;52.528;13.340;2022-10-31T01:37:14;24.63;;;15.20;;
16577;SDS011;8401;52.528;13.340;2022-10-31T01:39:39;22.70;;;14.67;;
16577;SDS011;8401;52.528;13.340;2022-10-31T01:42:05;19.67;;;14.30;;
16577;SDS011;8401;52.528;13.340;2022-10-31T01:47:13;21.37;;;14.73;;
16577;SDS011;8401;52.528;13.340;2022-10-31T01:49:46;23.87;;;13.93;;
16577;SDS011;8401;52.528;13.340;2022-10-31T01:52:19;21.43;;;14.47;;
16577;SDS011;8401;52.528;13.340;2022-10-31T01:55:03;23.00;;;13.97;;
16577;SDS011;8401;52.528;13.340;2022-10-31T01:57:33;20.83;;;14.90;;
16577;SDS011;8401;52.528;13.340;2022-10-31T02:00:02;23.60;;;15.87;;
16577;SDS011;8401;52.528;13.340;2022-10-31T02:02:31;22.10;;;15.33;;
16577;SDS011;8401;52.528;13.340;2022-10-31T02:04:57;23.53;;;15.30;;
16577;SDS011;8401;52.528;13.340;2022-10-31T02:07:27;23.07;;;14.90;;
16577;SDS011;8401;52.528;13.340;2022-10-31T02:09:59;20.80;;;14.37;;
16577;SDS011;8401;52.528;13.340;2022-10-31T02:12:26;23.23;;;16.67;;
16577;SDS011;8401;52.528;13.340;2022-10-31T02:14:54;21.67;;;15.30;;
16577;SDS011;8401;52.528;13.340;2022-10-31T02:17:20;25.37;;;14.97;;
16577;SDS011;8401;52.528;13.340;2022-10-31T02:19:58;22.40;;;15.17;;
16577;SDS011;8401;52.528;13.340;2022-10-31T02:22:40;20.83;;;14.77;;
16577;SDS011;8401;52.528;13.340;2022-10-31T02:25:40;25.90;;;15.23;;
16577;SDS011;8401;52.528;13.340;2022-10-31T02:44:36;23.87;;;16.13;;
16577;SDS011;8401;52.528;13.340;2022-10-31T02:47:24;22.40;;;15.90;;
16577;SDS011;8401;52.528;13.340;2022-10-31T02:50:10;25.30;;;16.03;;
16577;SDS011;8401;52.528;13.340;2022-10-31T02:52:41;24.93;;;16.07;;
16577;SDS011;8401;52.528;13.340;2022-10-31T02:55:41;22.50;;;15.13;;
16577;SDS011;8401;52.528;13.340;2022-10-31T02:58:06;21.93;;;14.97;;
16577;SDS011;8401;52.528;13.340;2022-10-31T03:00:50;22.37;;;15.30;;
16577;SDS011;8401;52.528;13.340;2022-10-31T03:06:17;21.37;;;15.47;;
16577;SDS011;8401;52.528;13.340;2022-10-31T03:08:55;23.37;;;14.87;;
16577;SDS011;8401;52.528;13.340;2022-10-31T03:14:32;22.77;;;15.17;;
16577;SDS011;8401;52.528;13.340;2022-10-31T03:17:07;20.80;;;14.90;;
16577;SDS011;8401;52.528;13.340;2022-10-31T03:19:41;23.13;;;14.93;;
16577;SDS011;8401;52.528;13.340;2022-10-31T03:22:15;21.07;;;15.13;;
16577;SDS011;8401;52.528;13.340;2022-10-31T03:24:44;19.60;;;13.53;;
16577;SDS011;8401;52.528;13.340;2022-10-31T03:27:12;21.43;;;12.47;;
16577;SDS011;8401;52.528;13.340;2022-10-31T03:29:40;17.43;;;12.03;;
16577;SDS011;8401;52.528;13.340;2022-10-31T03:32:15;18.30;;;11.73;;
16577;SDS011;8401;52.528;13.340;2022-10-31T03:34:45;21.20;;;12.57;;
16577;SDS011;8401;52.528;13.340;2022-10-31T03:37:13;21.70;;;12.83;;
16577;SDS011;8401;52.528;13.340;2022-10-31T03:39:42;18.87;;;12.47;;
16577;SDS011;8401;52.528;13.340;2022-10-31T03:42:14;20.67;;;12.40;;
16577;SDS011;8401;52.528;13.340;2022-10-31T03:44:44;15.67;;;12.20;;
16577;SDS011;8401;52.528;13.340;2022-10-31T03:47:14;20.30;;;12.10;;
16577;SDS011;8401;52.528;13.340;2022-10-31T03:49:41;17.40;;;12.10;;
16577;SDS011;8401;52.528;13.340;2022-10-31T03:54:45;20.13;;;11.90;;
16577;SDS011;8401;52.528;13.340;2022-10-31T03:57:27;18.13;;;11.07;;
16577;SDS011;8401;52.528;13.340;2022-10-31T04:00:06;16.13;;;11.57;;
16577;SDS011;8401;52.528;13.340;2022-10-31T04:02:34;18.90;;;12.03;;
16577;SDS011;8401;52.528;13.340;2022-10-31T04:05:03;17.00;;;10.80;;
16577;SDS011;8401;52.528;13.340;2022-10-31T04:07:30;19.13;;;11.13;;
16577;SDS011;8401;52.528;13.340;2022-10-31T04:10:00;16.90;;;11.17;;
16577;SDS011;8401;52.528;13.340;2022-10-31T04:12:28;16.63;;;10.47;;
16577;SDS011;8401;52.528;13.340;2022-10-31T04:14:55;20.60;;;11.97;;
16577;SDS011;8401;52.528;13.340;2022-10-31T04:17:23;18.90;;;11.37;;
16577;SDS011;8401;52.528;13.340;2022-10-31T04:19:52;17.37;;;11.87;;
16577;SDS011;8401;52.528;13.340;2022-10-31T04:22:17;15.97;;;10.93;;
16577;SDS011;8401;52.528;13.340;2022-10-31T04:24:43;17.47;;;11.07;;
16577;SDS011;8401;52.528;13.340;2022-10-31T04:27:09;20.10;;;10.80;;
16577;SDS011;8401;52.528;13.340;2022-10-31T04:29:34;20.00;;;10.93;;
16577;SDS011;8401;52.528;13.340;2022-10-31T04:32:00;18.60;;;10.93;;
16577;SDS011;8401;52.528;13.340;2022-10-31T04:34:25;17.07;;;11.50;;
16577;SDS011;8401;52.528;13.340;2022-10-31T04:36:51;15.47;;;11.00;;
16577;SDS011;8401;52.528;13.340;2022-10-31T04:39:17;17.23;;;11.73;;
16577;SDS011;8401;52.528;13.340;2022-10-31T04:41:42;18.57;;;11.80;;
16577;SDS011;8401;52.528;13.340;2022-10-31T04:44:08;21.50;;;11.67;;
16577;SDS011;8401;52.528;13.340;2022-10-31T04:46:33;17.80;;;12.33;;
16577;SDS011;8401;52.528;13.340;2022-10-31T04:48:59;16.37;;;10.97;;
16577;SDS011;8401;52.528;13.340;2022-10-31T04:51:24;16.80;;;11.70;;
16577;SDS011;8401;52.528;13.340;2022-10-31T04:53:50;19.53;;;11.50;;
16577;SDS011;8401;52.528;13.340;2022-10-31T04:56:15;19.43;;;11.87;;
16577;SDS011;8401;52.528;13.340;2022-10-31T04:58:41;21.67;;;11.70;;
16577;SDS011;8401;52.528;13.340;2022-10-31T05:01:06;20.03;;;12.60;;
16577;SDS011;8401;52.528;13.340;2022-10-31T05:03:32;24.23;;;11.97;;
16577;SDS011;8401;52.528;13.340;2022-10-31T05:05:58;18.67;;;12.07;;
16577;SDS011;8401;52.528;13.340;2022-10-31T05:08:23;19.57;;;12.00;;
16577;SDS011;8401;52.528;13.340;2022-10-31T05:10:49;17.90;;;12.17;;
16577;SDS011;8401;52.528;13.340;2022-10-31T05:13:14;22.70;;;12.03;;
16577;SDS011;8401;52.528;13.340;2022-10-31T05:15:40;20.93;;;12.43;;
16577;SDS011;8401;52.528;13.340;2022-10-31T05:18:06;20.67;;;12.07;;
16577;SDS011;8401;52.528;13.340;2022-10-31T05:20:31;19.57;;;11.83;;
16577;SDS011;8401;52.528;13.340;2022-10-31T05:22:57;18.13;;;12.07;;
16577;SDS011;8401;52.528;13.340;2022-10-31T05:25:24;19.93;;;12.17;;
16577;SDS011;8401;52.528;13.340;2022-10-31T05:27:52;15.60;;;11.17;;
16577;SDS011;8401;52.528;13.340;2022-10-31T05:30:19;20.50;;;13.07;;
16577;SDS011;8401;52.528;13.340;2022-10-31T05:32:47;15.37;;;11.27;;
16577;SDS011;8401;52.528;13.340;2022-10-31T05:35:23;20.63;;;12.40;;
16577;SDS011;8401;52.528;13.340;2022-10-31T05:37:54;21.67;;;12.80;;
16577;SDS011;8401;52.528;13.340;2022-10-31T05:40:20;15.00;;;10.90;;
16577;SDS011;8401;52.528;13.340;2022-10-31T05:42:46;20.03;;;12.33;;
16577;SDS011;8401;52.528;13.340;2022-10-31T05:45:14;19.17;;;12.53;;
16577;SDS011;8401;52.528;13.340;2022-10-31T05:47:41;17.97;;;12.27;;
16577;SDS011;8401;52.528;13.340;2022-10-31T05:50:08;17.27;;;12.27;;
16577;SDS011;8401;52.528;13.340;2022-10-31T05:52:35;20.23;;;11.73;;
16577;SDS011;8401;52.528;13.340;2022-10-31T05:55:00;17.43;;;12.67;;
16577;SDS011;8401;52.528;13.340;2022-10-31T05:57:26;19.50;;;12.57;;
16577;SDS011;8401;52.528;13.340;2022-10-31T05:59:52;23.07;;;12.93;;
16577;SDS011;8401;52.528;13.340;2022-10-31T06:02:19;17.80;;;11.97;;
16577;SDS011;8401;52.528;13.340;2022-10-31T06:04:45;22.60;;;13.50;;
16577;SDS011;8401;52.528;13.340;2022-10-31T06:07:10;25.07;;;14.00;;
16577;SDS011;8401;52.528;13.340;2022-10-31T06:09:36;18.63;;;12.10;;
16577;SDS011;8401;52.528;13.340;2022-10-31T06:12:02;22.53;;;12.83;;
16577;SDS011;8401;52.528;13.340;2022-10-31T06:14:28;19.47;;;13.00;;
16577;SDS011;8401;52.528;13.340;2022-10-31T06:16:53;20.20;;;13.03;;
16577;SDS011;8401;52.528;13.340;2022-10-31T06:19:20;23.80;;;13.33;;
16577;SDS011;8401;52.528;13.340;2022-10-31T06:21:45;17.87;;;12.70;;
16577;SDS011;8401;52.528;13.340;2022-10-31T06:24:11;20.43;;;13.00;;
16577;SDS011;8401;52.528;13.340;2022-10-31T06:26:36;18.80;;;12.57;;
16577;SDS011;8401;52.528;13.340;2022-10-31T06:29:02;21.23;;;12.83;;
16577;SDS011;8401;52.528;13.340;2022-10-31T06:31:27;19.30;;;12.97;;
16577;SDS011;8401;52.528;13.340;2022-10-31T06:33:53;18.00;;;12.97;;
16577;SDS011;8401;52.528;13.340;2022-10-31T06:36:19;21.33;;;13.00;;
16577;SDS011;8401;52.528;13.340;2022-10-31T06:38:44;20.13;;;12.67;;
16577;SDS011;8401;52.528;13.340;2022-10-31T06:41:10;21.53;;;13.47;;
16577;SDS011;8401;52.528;13.340;2022-10-31T06:43:35;21.63;;;13.93;;
16577;SDS011;8401;52.528;13.340;2022-10-31T06:46:01;24.13;;;12.67;;
16577;SDS011;8401;52.528;13.340;2022-10-31T06:48:28;22.37;;;12.77;;
16577;SDS011;8401;52.528;13.340;2022-10-31T06:50:56;20.30;;;12.90;;
16577;SDS011;8401;52.528;13.340;2022-10-31T06:53:25;19.93;;;13.57;;
16577;SDS011;8401;52.528;13.340;2022-10-31T06:55:51;20.57;;;13.20;;
16577;SDS011;8401;52.528;13.340;2022-10-31T06:58:17;21.40;;;13.03;;
16577;SDS011;8401;52.528;13.340;2022-10-31T07:00:42;22.10;;;14.03;;
16577;SDS011;8401;52.528;13.340;2022-10-31T07:03:12;23.33;;;13.37;;
16577;SDS011;8401;52.528;13.340;2022-10-31T07:05:40;24.17;;;13.33;;
16577;SDS011;8401;52.528;13.340;2022-10-31T07:08:07;20.50;;;12.63;;
16577;SDS011;8401;52.528;13.340;2022-10-31T07:10:36;19.83;;;13.37;;
16577;SDS011;8401;52.528;13.340;2022-10-31T07:13:03;18.23;;;13.17;;
16577;SDS011;8401;52.528;13.340;2022-10-31T07:15:33;20.13;;;12.77;;
16577;SDS011;8401;52.528;13.340;2022-10-31T07:18:00;20.43;;;12.90;;
16577;SDS011;8401;52.528;13.340;2022-10-31T07:20:27;22.73;;;13.03;;
16577;SDS011;8401;52.528;13.340;2022-10-31T07:22:53;22.03;;;13.37;;
16577;SDS011;8401;52.528;13.340;2022-10-31T07:25:19;23.37;;;13.50;;
16577;SDS011;8401;52.528;13.340;2022-10-31T07:27:45;20.83;;;13.37;;
16577;SDS011;8401;52.528;13.340;2022-10-31T07:30:11;23.03;;;13.77;;
16577;SDS011;8401;52.528;13.340;2022-10-31T07:32:40;25.23;;;13.83;;
16577;SDS011;8401;52.528;13.340;2022-10-31T07:35:08;23.70;;;13.33;;
16577;SDS011;8401;52.528;13.340;2022-10-31T07:37:37;22.93;;;15.03;;
16577;SDS011;8401;52.528;13.340;2022-10-31T07:40:03;24.50;;;15.80;;
16577;SDS011;8401;52.528;13.340;2022-10-31T07:42:33;23.77;;;14.43;;
16577;SDS011;8401;52.528;13.340;2022-10-31T07:45:03;24.13;;;15.13;;
16577;SDS011;8401;52.528;13.340;2022-10-31T07:47:30;21.60;;;14.83;;
16577;SDS011;8401;52.528;13.340;2022-10-31T07:50:14;20.30;;;13.80;;
16577;SDS011;8401;52.528;13.340;2022-10-31T07:52:41;25.47;;;15.53;;
16577;SDS011;8401;52.528;13.340;2022-10-31T07:55:07;25.30;;;16.13;;
16577;SDS011;8401;52.528;13.340;2022-10-31T07:57:34;24.17;;;15.30;;
16577;SDS011;8401;52.528;13.340;2022-10-31T08:00:02;27.10;;;15.93;;
16577;SDS011;8401;52.528;13.340;2022-10-31T08:02:32;22.20;;;14.80;;
16577;SDS011;8401;52.528;13.340;2022-10-31T08:04:57;25.37;;;15.50;;
16577;SDS011;8401;52.528;13.340;2022-10-31T08:07:24;26.77;;;15.90;;
16577;SDS011;8401;52.528;13.340;2022-10-31T08:09:50;27.37;;;15.57;;
16577;SDS011;8401;52.528;13.340;2022-10-31T08:12:16;26.70;;;16.37;;
16577;SDS011;8401;52.528;13.340;2022-10-31T08:14:42;27.63;;;16.87;;
16577;SDS011;8401;52.528;13.340;2022-10-31T08:17:07;26.67;;;16.07;;
16577;SDS011;8401;52.528;13.340;2022-10-31T08:19:33;25.13;;;15.63;;
16577;SDS011;8401;52.528;13.340;2022-10-31T08:21:58;24.80;;;15.90;;
16577;SDS011;8401;52.528;13.340;2022-10-31T08:24:24;25.63;;;16.00;;
16577;SDS011;8401;52.528;13.340;2022-10-31T08:26:49;26.67;;;16.60;;
16577;SDS011;8401;52.528;13.340;2022-10-31T08:29:15;24.00;;;16.23;;
16577;SDS011;8401;52.528;13.340;2022-10-31T08:31:41;27.30;;;14.93;;
16577;SDS011;8401;52.528;13.340;2022-10-31T08:34:07;27.13;;;16.90;;
16577;SDS011;8401;52.528;13.340;2022-10-31T08:36:33;23.83;;;15.97;;
16577;SDS011;8401;52.528;13.340;2022-10-31T08:38:58;25.97;;;14.77;;
16577;SDS011;8401;52.528;13.340;2022-10-31T08:41:24;27.37;;;17.70;;
16577;SDS011;8401;52.528;13.340;2022-10-31T08:43:49;32.83;;;16.00;;
16577;SDS011;8401;52.528;13.340;2022-10-31T08:46:15;25.70;;;15.80;;
16577;SDS011;8401;52.528;13.340;2022-10-31T08:48:41;28.10;;;15.97;;
16577;SDS011;8401;52.528;13.340;2022-10-31T08:51:08;26.53;;;16.80;;
16577;SDS011;8401;52.528;13.340;2022-10-31T08:53:34;24.67;;;15.70;;
16577;SDS011;8401;52.528;13.340;2022-10-31T08:55:59;23.30;;;15.37;;
16577;SDS011;8401;52.528;13.340;2022-10-31T08:58:25;30.10;;;16.57;;
16577;SDS011;8401;52.528;13.340;2022-10-31T09:00:51;21.83;;;15.70;;
16577;SDS011;8401;52.528;13.340;2022-10-31T09:03:19;28.50;;;16.60;;
16577;SDS011;8401;52.528;13.340;2022-10-31T09:05:47;22.83;;;15.70;;
16577;SDS011;8401;52.528;13.340;2022-10-31T09:08:13;26.80;;;16.23;;
16577;SDS011;8401;52.528;13.340;2022-10-31T09:10:39;24.00;;;15.53;;
16577;SDS011;8401;52.528;13.340;2022-10-31T09:13:06;26.37;;;16.40;;
16577;SDS011;8401;52.528;13.340;2022-10-31T09:15:36;20.20;;;15.00;;
16577;SDS011;8401;52.528;13.340;2022-10-31T09:18:07;29.07;;;17.67;;
16577;SDS011;8401;52.528;13.340;2022-10-31T09:20:34;24.63;;;16.80;;
16577;SDS011;8401;52.528;13.340;2022-10-31T09:23:02;26.67;;;16.37;;
16577;SDS011;8401;52.528;13.340;2022-10-31T09:25:35;28.60;;;17.00;;
16577;SDS011;8401;52.528;13.340;2022-10-31T09:28:02;27.20;;;17.63;;
16577;SDS011;8401;52.528;13.340;2022-10-31T09:30:29;25.47;;;17.07;;
16577;SDS011;8401;52.528;13.340;2022-10-31T09:33:03;29.93;;;17.10;;
16577;SDS011;8401;52.528;13.340;2022-10-31T09:35:30;24.87;;;17.07;;
16577;SDS011;8401;52.528;13.340;2022-10-31T09:37:57;28.00;;;17.33;;
16577;SDS011;8401;52.528;13.340;2022-10-31T09:40:24;28.23;;;16.87;;
16577;SDS011;8401;52.528;13.340;2022-10-31T09:43:14;23.50;;;15.53;;
16577;SDS011;8401;52.528;13.340;2022-10-31T09:51:30;28.03;;;17.90;;
16577;SDS011;8401;52.528;13.340;2022-10-31T09:54:13;24.63;;;17.23;;
16577;SDS011;8401;52.528;13.340;2022-10-31T09:56:42;30.00;;;17.42;;
16577;SDS011;8401;52.528;13.340;2022-10-31T09:59:24;23.90;;;17.27;;
16577;SDS011;8401;52.528;13.340;2022-10-31T10:02:18;26.27;;;16.75;;
16577;SDS011;8401;52.528;13.340;2022-10-31T10:04:48;23.55;;;15.60;;
16577;SDS011;8401;52.528;13.340;2022-10-31T10:07:20;24.10;;;16.23;;
16577;SDS011;8401;52.528;13.340;2022-10-31T10:09:55;26.23;;;16.67;;
16577;SDS011;8401;52.528;13.340;2022-10-31T10:15:07;27.17;;;17.13;;
16577;SDS011;8401;52.528;13.340;2022-10-31T10:17:51;25.80;;;16.63;;
16577;SDS011;8401;52.528;13.340;2022-10-31T10:26:28;28.27;;;18.27;;
16577;SDS011;8401;52.528;13.340;2022-10-31T10:29:00;23.48;;;18.45;;
16577;SDS011;8401;52.528;13.340;2022-10-31T10:31:38;28.45;;;19.35;;
16577;SDS011;8401;52.528;13.340;2022-10-31T10:34:24;24.88;;;17.85;;
16577;SDS011;8401;52.528;13.340;2022-10-31T10:36:57;28.23;;;19.73;;
16577;SDS011;8401;52.528;13.340;2022-10-31T10:39:30;27.55;;;18.45;;
16577;SDS011;8401;52.528;13.340;2022-10-31T10:42:12;27.33;;;17.88;;
16577;SDS011;8401;52.528;13.340;2022-10-31T10:44:58;25.58;;;17.48;;
16577;SDS011;8401;52.528;13.340;2022-10-31T10:47:44;27.65;;;17.35;;
16577;SDS011;8401;52.528;13.340;2022-10-31T10:50:18;29.75;;;18.50;;
16577;SDS011;8401;52.528;13.340;2022-10-31T10:52:48;27.33;;;17.90;;
16577;SDS011;8401;52.528;13.340;2022-10-31T10:58:00;27.48;;;18.85;;
16577;SDS011;8401;52.528;13.340;2022-10-31T11:00:46;31.00;;;19.67;;
16577;SDS011;8401;52.528;13.340;2022-10-31T11:03:16;27.20;;;19.08;;
16577;SDS011;8401;52.528;13.340;2022-10-31T11:05:50;28.42;;;19.08;;
16577;SDS011;8401;52.528;13.340;2022-10-31T11:11:03;30.98;;;19.88;;
16577;SDS011;8401;52.528;13.340;2022-10-31T11:13:33;32.65;;;19.75;;
16577;SDS011;8401;52.528;13.340;2022-10-31T11:18:27;30.27;;;20.92;;
16577;SDS011;8401;52.528;13.340;2022-10-31T11:20:56;54.17;;;29.90;;
16577;SDS011;8401;52.528;13.340;2022-10-31T11:23:24;32.47;;;22.10;;
16577;SDS011;8401;52.528;13.340;2022-10-31T11:26:04;69.57;;;40.58;;
16577;SDS011;8401;52.528;13.340;2022-10-31T11:28:31;57.67;;;34.10;;
16577;SDS011;8401;52.528;13.340;2022-10-31T11:31:00;28.67;;;20.98;;
16577;SDS011;8401;52.528;13.340;2022-10-31T11:33:32;42.85;;;24.38;;
16577;SDS011;8401;52.528;13.340;2022-10-31T11:36:03;34.38;;;21.90;;
16577;SDS011;8401;52.528;13.340;2022-10-31T11:38:45;31.00;;;19.48;;
16577;SDS011;8401;52.528;13.340;2022-10-31T11:41:12;27.90;;;20.23;;
16577;SDS011;8401;52.528;13.340;2022-10-31T11:43:45;32.90;;;19.58;;
16577;SDS011;8401;52.528;13.340;2022-10-31T11:46:50;29.08;;;20.25;;
16577;SDS011;8401;52.528;13.340;2022-10-31T11:49:14;29.70;;;20.10;;
16577;SDS011;8401;52.528;13.340;2022-10-31T11:52:17;34.10;;;21.45;;
16577;SDS011;8401;52.528;13.340;2022-10-31T11:54:57;30.95;;;21.50;;
16577;SDS011;8401;52.528;13.340;2022-10-31T11:57:46;37.10;;;22.48;;
16577;SDS011;8401;52.528;13.340;2022-10-31T12:00:22;33.08;;;21.63;;
16577;SDS011;8401;52.528;13.340;2022-10-31T12:02:48;30.52;;;21.63;;
16577;SDS011;8401;52.528;13.340;2022-10-31T12:05:18;37.38;;;22.15;;
16577;SDS011;8401;52.528;13.340;2022-10-31T12:07:54;35.03;;;21.05;;
16577;SDS011;8401;52.528;13.340;2022-10-31T12:10:20;29.48;;;21.38;;
16577;SDS011;8401;52.528;13.340;2022-10-31T12:13:08;35.42;;;22.38;;
16577;SDS011;8401;52.528;13.340;2022-10-31T12:15:54;31.05;;;19.88;;
16577;SDS011;8401;52.528;13.340;2022-10-31T12:18:28;35.10;;;21.13;;
16577;SDS011;8401;52.528;13.340;2022-10-31T12:24:04;27.88;;;19.25;;
16577;SDS011;8401;52.528;13.340;2022-10-31T12:37:30;30.90;;;21.50;;
16577;SDS011;8401;52.528;13.340;2022-10-31T12:56:54;32.90;;;20.63;;
16577;SDS011;8401;52.528;13.340;2022-10-31T12:59:30;31.10;;;20.83;;
16577;SDS011;8401;52.528;13.340;2022-10-31T13:02:02;33.60;;;19.58;;
16577;SDS011;8401;52.528;13.340;2022-10-31T13:04:42;25.42;;;19.42;;
16577;SDS011;8401;52.528;13.340;2022-10-31T13:07:20;28.35;;;20.00;;
16577;SDS011;8401;52.528;13.340;2022-10-31T13:09:58;33.25;;;22.17;;
16577;SDS011;8401;52.528;13.340;2022-10-31T13:12:29;35.22;;;21.20;;
16577;SDS011;8401;52.528;13.340;2022-10-31T13:14:59;33.40;;;19.98;;
16577;SDS011;8401;52.528;13.340;2022-10-31T13:17:41;31.90;;;20.67;;
16577;SDS011;8401;52.528;13.340;2022-10-31T13:22:54;33.28;;;20.70;;
16577;SDS011;8401;52.528;13.340;2022-10-31T13:25:28;30.77;;;19.63;;
16577;SDS011;8401;52.528;13.340;2022-10-31T13:28:01;29.55;;;20.70;;
16577;SDS011;8401;52.528;13.340;2022-10-31T13:30:31;31.27;;;19.92;;
16577;SDS011;8401;52.528;13.340;2022-10-31T13:33:03;31.58;;;19.70;;
16577;SDS011;8401;52.528;13.340;2022-10-31T13:35:59;37.95;;;24.08;;
16577;SDS011;8401;52.528;13.340;2022-10-31T13:44:21;43.70;;;26.35;;
16577;SDS011;8401;52.528;13.340;2022-10-31T13:49:00;40.92;;;25.60;;
16577;SDS011;8401;52.528;13.340;2022-10-31T13:51:26;37.22;;;26.48;;
16577;SDS011;8401;52.528;13.340;2022-10-31T13:58:59;47.45;;;26.17;;
16577;SDS011;8401;52.528;13.340;2022-10-31T14:01:34;42.15;;;25.50;;
16577;SDS011;8401;52.528;13.340;2022-10-31T14:09:33;39.75;;;26.45;;
16577;SDS011;8401;52.528;13.340;2022-10-31T14:12:05;44.85;;;27.10;;
16577;SDS011;8401;52.528;13.340;2022-10-31T14:14:42;40.35;;;26.73;;
16577;SDS011;8401;52.528;13.340;2022-10-31T14:17:21;45.30;;;29.02;;
16577;SDS011;8401;52.528;13.340;2022-10-31T14:22:36;49.00;;;29.48;;
16577;SDS011;8401;52.528;13.340;2022-10-31T14:27:54;50.37;;;29.80;;
16577;SDS011;8401;52.528;13.340;2022-10-31T14:30:22;44.80;;;29.20;;
16577;SDS011;8401;52.528;13.340;2022-10-31T14:32:53;51.97;;;31.47;;
16577;SDS011;8401;52.528;13.340;2022-10-31T14:35:24;46.33;;;29.10;;
16577;SDS011;8401;52.528;13.340;2022-10-31T14:41:31;47.37;;;29.93;;
16577;SDS011;8401;52.528;13.340;2022-10-31T14:44:32;46.13;;;29.57;;
16577;SDS011;8401;52.528;13.340;2022-10-31T14:47:35;50.07;;;32.20;;
16577;SDS011;8401;52.528;13.340;2022-10-31T14:52:53;54.90;;;32.50;;
16577;SDS011;8401;52.528;13.340;2022-10-31T14:55:21;58.60;;;34.03;;
16577;SDS011;8401;52.528;13.340;2022-10-31T14:57:49;60.67;;;32.93;;
16577;SDS011;8401;52.528;13.340;2022-10-31T15:00:19;61.80;;;34.20;;
16577;SDS011;8401;52.528;13.340;2022-10-31T15:03:07;54.07;;;33.93;;
16577;SDS011;8401;52.528;13.340;2022-10-31T15:05:47;54.07;;;34.70;;
16577;SDS011;8401;52.528;13.340;2022-10-31T15:08:35;56.23;;;34.43;;
16577;SDS011;8401;52.528;13.340;2022-10-31T15:11:23;57.40;;;35.67;;
16577;SDS011;8401;52.528;13.340;2022-10-31T15:13:51;57.90;;;33.40;;
16577;SDS011;8401;52.528;13.340;2022-10-31T15:16:19;51.57;;;32.50;;
16577;SDS011;8401;52.528;13.340;2022-10-31T15:18:49;55.67;;;33.53;;
16577;SDS011;8401;52.528;13.340;2022-10-31T15:21:20;55.07;;;33.27;;
16577;SDS011;8401;52.528;13.340;2022-10-31T15:23:48;61.40;;;35.13;;
16577;SDS011;8401;52.528;13.340;2022-10-31T15:26:21;63.13;;;35.53;;
16577;SDS011;8401;52.528;13.340;2022-10-31T15:29:02;59.43;;;36.83;;
16577;SDS011;8401;52.528;13.340;2022-10-31T15:31:30;76.70;;;38.73;;
16577;SDS011;8401;52.528;13.340;2022-10-31T15:33:58;73.17;;;39.43;;
16577;SDS011;8401;52.528;13.340;2022-10-31T15:36:37;71.33;;;39.97;;
16577;SDS011;8401;52.528;13.340;2022-10-31T15:39:03;80.63;;;41.83;;
16577;SDS011;8401;52.528;13.340;2022-10-31T15:44:02;71.50;;;40.20;;
16577;SDS011;8401;52.528;13.340;2022-10-31T15:46:59;71.23;;;40.47;;
16577;SDS011;8401;52.528;13.340;2022-10-31T15:49:31;70.33;;;39.13;;
16577;SDS011;8401;52.528;13.340;2022-10-31T15:52:15;65.83;;;38.87;;
16577;SDS011;8401;52.528;13.340;2022-10-31T15:54:53;64.03;;;37.00;;
16577;SDS011;8401;52.528;13.340;2022-10-31T15:57:21;61.57;;;36.87;;
16577;SDS011;8401;52.528;13.340;2022-10-31T15:59:51;70.07;;;36.37;;
16577;SDS011;8401;52.528;13.340;2022-10-31T16:02:21;82.00;;;35.60;;
16577;SDS011;8401;52.528;13.340;2022-10-31T16:04:53;71.53;;;38.20;;
16577;SDS011;8401;52.528;13.340;2022-10-31T16:07:21;88.50;;;39.63;;
16577;SDS011;8401;52.528;13.340;2022-10-31T16:12:16;71.27;;;41.60;;
16577;SDS011;8401;52.528;13.340;2022-10-31T16:14:41;94.07;;;41.80;;
16577;SDS011;8401;52.528;13.340;2022-10-31T16:17:10;77.67;;;42.13;;
16577;SDS011;8401;52.528;13.340;2022-10-31T16:19:48;86.37;;;44.30;;
16577;SDS011;8401;52.528;13.340;2022-10-31T16:22:24;81.33;;;44.80;;
16577;SDS011;8401;52.528;13.340;2022-10-31T16:24:57;87.37;;;44.27;;
16577;SDS011;8401;52.528;13.340;2022-10-31T16:27:34;82.90;;;42.63;;
16577;SDS011;8401;52.528;13.340;2022-10-31T16:30:01;78.37;;;43.17;;
16577;SDS011;8401;52.528;13.340;2022-10-31T16:37:36;89.50;;;43.70;;
16577;SDS011;8401;52.528;13.340;2022-10-31T16:40:02;84.00;;;43.80;;
16577;SDS011;8401;52.528;13.340;2022-10-31T16:42:28;85.87;;;45.70;;
16577;SDS011;8401;52.528;13.340;2022-10-31T16:44:54;89.30;;;44.07;;